| time (UTC) | temp F | wind direction | speed knots | gust knots | rain 1hr in | rain 24hr in | rain mn in | humidity % | barometer mb |
| 20260504060237 | 48 | 0 | 0.0 | 0.9 | 0.00 | 0.00 | 0.00 | 88 | 1003.4 |
| 20260504050734 | 48 | 0 | 0.0 | 0.9 | 0.00 | 0.00 | 0.00 | 85 | 1003.5 |
| 20260504050232 | 48 | 0 | 0.0 | 0.9 | 0.00 | 0.00 | 0.00 | 85 | 1003.5 |
| 20260504045732 | 48 | 85 | 0.0 | 1.7 | 0.00 | 0.00 | 0.00 | 85 | 1003.5 |
| 20260504045232 | 48 | 135 | 0.0 | 1.7 | 0.00 | 0.00 | 0.00 | 86 | 1003.6 |
| 20260504045010 | 48 | 0 | 0.0 | 1.7 | 0.00 | 0.00 | 0.00 | 86 | 1003.6 |
| 20260504044232 | 49 | 0 | 0.0 | 1.7 | 0.00 | 0.00 | 0.00 | 87 | 1003.6 |
| 20260504043731 | 49 | 0 | 0.0 | 1.7 | 0.00 | 0.00 | 0.00 | 87 | 1003.6 |
| 20260504043231 | 49 | 178 | 0.0 | 1.7 | 0.00 | 0.00 | 0.00 | 87 | 1003.6 |
| 20260504042731 | 48 | 0 | 0.0 | 1.7 | 0.00 | 0.00 | 0.00 | 88 | 1003.6 |
| 20260504042231 | 48 | 0 | 0.0 | 1.7 | 0.00 | 0.00 | 0.00 | 87 | 1003.6 |
| 20260504041731 | 48 | 0 | 0.0 | 0.9 | 0.00 | 0.00 | 0.00 | 87 | 1003.7 |
| 20260504041231 | 48 | 109 | 0.0 | 0.9 | 0.00 | 0.00 | 0.00 | 86 | 1003.6 |
| 20260504040731 | 48 | 0 | 0.0 | 0.9 | 0.00 | 0.00 | 0.00 | 86 | 1003.6 |
| 20260504040229 | 49 | 151 | 0.0 | 0.9 | 0.00 | 0.00 | 0.00 | 84 | 1003.6 |
| 20260504035726 | 49 | 170 | 0.0 | 0.9 | 0.00 | 0.00 | 0.00 | 84 | 1003.6 |
| 20260504035224 | 49 | 0 | 0.0 | 0.9 | 0.00 | 0.00 | 0.00 | 83 | 1003.6 |
| 20260504034729 | 49 | 0 | 0.0 | 0.9 | 0.00 | 0.00 | 0.00 | 83 | 1003.6 |
| 20260504034226 | 50 | 0 | 0.0 | 0.9 | 0.00 | 0.00 | 0.00 | 82 | 1003.7 |
| 20260504033955 | 50 | 226 | 0.0 | 0.9 | 0.00 | 0.00 | 0.00 | 82 | 1003.7 |
| 20260504033222 | 50 | 0 | 0.0 | 0.9 | 0.00 | 0.00 | 0.00 | 82 | 1003.8 |
| 20260504032722 | 50 | 0 | 0.0 | 0.9 | 0.00 | 0.00 | 0.00 | 81 | 1003.8 |
| 20260504032222 | 51 | 148 | 0.0 | 0.9 | 0.00 | 0.00 | 0.00 | 80 | 1003.8 |
| 20260504031722 | 51 | 0 | 0.0 | 0.9 | 0.00 | 0.00 | 0.00 | 80 | 1003.8 |
| 20260504031222 | 51 | 0 | 0.0 | 0.9 | 0.00 | 0.00 | 0.00 | 79 | 1003.8 |
| 20260504030722 | 51 | 0 | 0.0 | 0.9 | 0.00 | 0.00 | 0.00 | 79 | 1003.8 |
| 20260504030222 | 51 | 0 | 0.0 | 0.0 | 0.00 | 0.00 | 0.00 | 78 | 1003.8 |
| 20260504025954 | 52 | 0 | 0.0 | 0.0 | 0.00 | 0.00 | 0.00 | 77 | 1003.8 |
| 20260504025222 | 52 | 0 | 0.0 | 1.7 | 0.00 | 0.00 | 0.00 | 76 | 1003.8 |
| 20260504024722 | 52 | 0 | 0.0 | 1.7 | 0.00 | 0.00 | 0.00 | 76 | 1003.7 |
| 20260504024457 | 53 | 0 | 0.0 | 0.9 | 0.00 | 0.00 | 0.00 | 75 | 1003.7 |
| 20260504023719 | 53 | 0 | 0.0 | 0.0 | 0.00 | 0.00 | 0.00 | 74 | 1003.7 |
| 20260504023454 | 53 | 0 | 0.0 | 0.9 | 0.00 | 0.00 | 0.00 | 74 | 1003.7 |
| 20260504022720 | 53 | 0 | 0.0 | 1.7 | 0.00 | 0.00 | 0.00 | 74 | 1003.7 |
| 20260504022220 | 54 | 0 | 0.0 | 1.7 | 0.00 | 0.00 | 0.00 | 74 | 1003.7 |
| 20260504021719 | 54 | 0 | 0.0 | 0.9 | 0.00 | 0.00 | 0.00 | 73 | 1003.7 |
| 20260504021220 | 55 | 0 | 0.0 | 0.9 | 0.00 | 0.00 | 0.00 | 72 | 1003.7 |
| 20260504020720 | 55 | 0 | 0.0 | 0.9 | 0.00 | 0.00 | 0.00 | 72 | 1003.7 |
| 20260504020220 | 55 | 0 | 0.0 | 0.9 | 0.00 | 0.00 | 0.00 | 71 | 1003.6 |
| 20260504015720 | 56 | 0 | 0.0 | 1.7 | 0.00 | 0.00 | 0.00 | 70 | 1003.6 |
| 20260504015220 | 56 | 0 | 0.0 | 1.7 | 0.00 | 0.00 | 0.00 | 68 | 1003.5 |
| 20260504014720 | 56 | 140 | 0.0 | 1.7 | 0.00 | 0.00 | 0.00 | 67 | 1003.6 |
| 20260504014220 | 57 | 0 | 0.0 | 1.7 | 0.00 | 0.00 | 0.00 | 67 | 1003.6 |
| 20260504013952 | 57 | 0 | 0.0 | 1.7 | 0.00 | 0.00 | 0.00 | 67 | 1003.6 |
| 20260504013218 | 58 | 0 | 0.0 | 0.9 | 0.00 | 0.00 | 0.00 | 67 | 1003.7 |
| 20260504012719 | 58 | 0 | 0.0 | 0.9 | 0.00 | 0.00 | 0.00 | 66 | 1003.6 |
| 20260504012219 | 59 | 0 | 0.0 | 0.9 | 0.00 | 0.00 | 0.00 | 65 | 1003.5 |
| 20260504011719 | 60 | 0 | 0.0 | 0.9 | 0.00 | 0.00 | 0.00 | 62 | 1003.5 |
| 20260504011450 | 60 | 0 | 0.0 | 0.9 | 0.00 | 0.00 | 0.00 | 59 | 1003.5 |
| 20260504010950 | 61 | 0 | 0.0 | 0.9 | 0.00 | 0.00 | 0.00 | 58 | 1003.5 |
| 20260504010450 | 61 | 0 | 0.0 | 0.9 | 0.00 | 0.00 | 0.00 | 57 | 1003.5 |
| 20260504005718 | 62 | 0 | 0.0 | 0.9 | 0.00 | 0.00 | 0.00 | 57 | 1003.5 |
| 20260504005449 | 62 | 0 | 0.0 | 0.9 | 0.00 | 0.00 | 0.00 | 58 | 1003.5 |
| 20260504004720 | 62 | 0 | 0.0 | 1.7 | 0.00 | 0.00 | 0.00 | 56 | 1003.4 |
| 20260504004218 | 63 | 0 | 0.0 | 1.7 | 0.00 | 0.00 | 0.00 | 55 | 1003.3 |
| 20260504003944 | 64 | 0 | 0.0 | 1.7 | 0.00 | 0.00 | 0.00 | 55 | 1003.4 |
| 20260504003214 | 64 | 0 | 0.0 | 1.7 | 0.00 | 0.00 | 0.00 | 53 | 1003.4 |
| 20260504002715 | 64 | 0 | 0.0 | 1.7 | 0.00 | 0.00 | 0.00 | 52 | 1003.4 |
| 20260504002215 | 65 | 308 | 0.9 | 4.3 | 0.00 | 0.00 | 0.00 | 52 | 1003.4 |
| 20260504002000 | 65 | 0 | 0.9 | 4.3 | 0.00 | 0.00 | 0.00 | 52 | 1003.3 |
| 20260504001442 | 65 | 204 | 1.7 | 4.3 | 0.00 | 0.00 | 0.00 | 51 | 1003.3 |
| 20260504000945 | 65 | 174 | 0.9 | 3.5 | 0.00 | 0.00 | 0.00 | 50 | 1003.3 |
| 20260504000213 | 66 | 112 | 0.9 | 3.5 | 0.00 | 0.00 | 0.00 | 52 | 1003.3 |
| 20260503235942 | 66 | 155 | 1.7 | 5.2 | 0.00 | 0.00 | 0.00 | 50 | 1003.3 |
| 20260503235439 | 66 | 274 | 0.9 | 5.2 | 0.00 | 0.00 | 0.00 | 49 | 1003.3 |
| 20260503234950 | 66 | 236 | 0.9 | 3.5 | 0.00 | 0.00 | 0.00 | 50 | 1003.3 |
| 20260503234440 | 66 | 0 | 0.9 | 3.5 | 0.00 | 0.00 | 0.00 | 49 | 1003.3 |
| 20260503233711 | 66 | 177 | 1.7 | 4.3 | 0.00 | 0.00 | 0.00 | 48 | 1003.4 |
| 20260503233211 | 66 | 0 | 1.7 | 5.2 | 0.00 | 0.00 | 0.00 | 49 | 1003.5 |
| 20260503232711 | 66 | 269 | 1.7 | 5.2 | 0.00 | 0.00 | 0.00 | 50 | 1003.5 |
| 20260503232211 | 66 | 311 | 1.7 | 5.2 | 0.00 | 0.00 | 0.00 | 51 | 1003.5 |
| 20260503231711 | 67 | 145 | 1.7 | 4.3 | 0.00 | 0.00 | 0.00 | 50 | 1003.5 |
| 20260503231210 | 67 | 248 | 1.7 | 4.3 | 0.00 | 0.00 | 0.00 | 50 | 1003.6 |
| 20260503230710 | 67 | 172 | 2.6 | 7.0 | 0.00 | 0.00 | 0.00 | 49 | 1003.6 |
| 20260503230206 | 67 | 174 | 2.6 | 7.0 | 0.00 | 0.00 | 0.00 | 49 | 1003.6 |
| 20260503225707 | 67 | 171 | 2.6 | 8.7 | 0.00 | 0.00 | 0.00 | 50 | 1003.6 |
| 20260503225205 | 67 | 353 | 2.6 | 8.7 | 0.00 | 0.00 | 0.00 | 48 | 1003.7 |
| 20260503224707 | 67 | 194 | 1.7 | 7.8 | 0.00 | 0.00 | 0.00 | 49 | 1003.7 |
| 20260503224207 | 67 | 350 | 1.7 | 6.1 | 0.00 | 0.00 | 0.00 | 49 | 1003.7 |
| 20260503223945 | 67 | 193 | 1.7 | 6.1 | 0.00 | 0.00 | 0.00 | 48 | 1003.7 |
| 20260503223207 | 67 | 180 | 1.7 | 6.1 | 0.00 | 0.00 | 0.00 | 49 | 1003.7 |
| 20260503222707 | 67 | 176 | 1.7 | 6.1 | 0.00 | 0.00 | 0.00 | 50 | 1003.8 |
| 20260503222436 | 67 | 157 | 2.6 | 6.1 | 0.00 | 0.00 | 0.00 | 50 | 1003.9 |
| 20260503221708 | 67 | 184 | 1.7 | 6.1 | 0.00 | 0.00 | 0.00 | 50 | 1003.9 |
| 20260503221207 | 67 | 191 | 1.7 | 6.1 | 0.00 | 0.00 | 0.00 | 48 | 1003.9 |
| 20260503220707 | 67 | 174 | 1.7 | 5.2 | 0.00 | 0.00 | 0.00 | 49 | 1003.9 |
| 20260503220203 | 67 | 347 | 1.7 | 5.2 | 0.00 | 0.00 | 0.00 | 50 | 1003.9 |
| 20260503215703 | 67 | 0 | 1.7 | 7.0 | 0.00 | 0.00 | 0.00 | 50 | 1003.9 |
| 20260503215200 | 66 | 196 | 2.6 | 7.0 | 0.00 | 0.00 | 0.00 | 51 | 1003.9 |
| 20260503214658 | 66 | 166 | 2.6 | 7.0 | 0.00 | 0.00 | 0.00 | 51 | 1003.9 |
| 20260503214158 | 66 | 343 | 2.6 | 7.0 | 0.00 | 0.00 | 0.00 | 50 | 1003.9 |
| 20260503213658 | 66 | 182 | 2.6 | 9.6 | 0.00 | 0.00 | 0.00 | 52 | 1004.1 |
| 20260503213158 | 66 | 264 | 3.5 | 9.6 | 0.00 | 0.00 | 0.00 | 51 | 1004.1 |
| 20260503212658 | 66 | 176 | 3.5 | 7.8 | 0.00 | 0.00 | 0.00 | 52 | 1004.2 |
| 20260503212158 | 66 | 192 | 2.6 | 7.8 | 0.00 | 0.00 | 0.00 | 50 | 1004.3 |
| 20260503211658 | 66 | 232 | 2.6 | 7.8 | 0.00 | 0.00 | 0.00 | 49 | 1004.2 |
| 20260503211155 | 65 | 185 | 2.6 | 7.8 | 0.00 | 0.00 | 0.00 | 52 | 1004.2 |
| 20260503210656 | 65 | 175 | 3.5 | 9.6 | 0.00 | 0.00 | 0.00 | 51 | 1004.4 |
| 20260503210153 | 65 | 168 | 4.3 | 9.6 | 0.00 | 0.00 | 0.00 | 52 | 1004.4 |
| 20260503205652 | 65 | 136 | 3.5 | 13.0 | 0.00 | 0.00 | 0.00 | 51 | 1004.5 |
| 20260503205153 | 65 | 228 | 3.5 | 13.0 | 0.00 | 0.00 | 0.00 | 52 | 1004.7 |
| 20260503204653 | 65 | 139 | 4.3 | 13.0 | 0.00 | 0.00 | 0.00 | 50 | 1004.6 |
| 20260503204152 | 65 | 152 | 3.5 | 11.3 | 0.00 | 0.00 | 0.00 | 50 | 1004.6 |
| 20260503203653 | 65 | 200 | 2.6 | 7.8 | 0.00 | 0.00 | 0.00 | 51 | 1004.7 |
| 20260503203424 | 65 | 177 | 2.6 | 8.7 | 0.00 | 0.00 | 0.00 | 54 | 1004.9 |
| 20260503202652 | 65 | 334 | 3.5 | 11.3 | 0.00 | 0.00 | 0.00 | 53 | 1005.0 |
| 20260503202153 | 64 | 193 | 3.5 | 11.3 | 0.00 | 0.00 | 0.00 | 55 | 1005.1 |
| 20260503201653 | 64 | 171 | 4.3 | 9.6 | 0.00 | 0.00 | 0.00 | 54 | 1005.2 |
| 20260503201154 | 63 | 274 | 5.2 | 10.4 | 0.00 | 0.00 | 0.00 | 55 | 1005.3 |
| 20260503200923 | 63 | 183 | 3.5 | 10.4 | 0.00 | 0.00 | 0.00 | 56 | 1005.5 |
| 20260503200416 | 62 | 216 | 3.5 | 9.6 | 0.00 | 0.00 | 0.00 | 57 | 1005.6 |
| 20260503195644 | 62 | 172 | 4.3 | 13.9 | 0.00 | 0.00 | 0.00 | 59 | 1005.7 |
| 20260503195416 | 62 | 81 | 5.2 | 13.9 | 0.00 | 0.00 | 0.00 | 58 | 1005.7 |
| 20260503194924 | 62 | 162 | 4.3 | 12.2 | 0.00 | 0.00 | 0.00 | 57 | 1005.8 |
| 20260503194418 | 63 | 188 | 4.3 | 13.0 | 0.00 | 0.00 | 0.00 | 58 | 1005.9 |
| 20260503193917 | 63 | 173 | 4.3 | 13.0 | 0.00 | 0.00 | 0.00 | 57 | 1006.1 |
| 20260503193415 | 63 | 168 | 3.5 | 13.0 | 0.00 | 0.00 | 0.00 | 58 | 1006.2 |
| 20260503192642 | 63 | 197 | 3.5 | 9.6 | 0.00 | 0.00 | 0.00 | 56 | 1006.1 |
| 20260503192142 | 63 | 164 | 4.3 | 11.3 | 0.00 | 0.00 | 0.00 | 53 | 1006.2 |
| 20260503191643 | 64 | 182 | 4.3 | 11.3 | 0.00 | 0.00 | 0.00 | 54 | 1006.1 |
| 20260503191415 | 64 | 96 | 4.3 | 11.3 | 0.00 | 0.00 | 0.00 | 55 | 1006.1 |
| 20260503190639 | 64 | 171 | 3.5 | 11.3 | 0.00 | 0.00 | 0.00 | 52 | 1006.2 |
| 20260503190139 | 64 | 181 | 5.2 | 11.3 | 0.00 | 0.00 | 0.00 | 54 | 1006.2 |
| 20260503185639 | 64 | 151 | 5.2 | 11.3 | 0.00 | 0.00 | 0.00 | 54 | 1006.2 |
| 20260503185141 | 64 | 252 | 4.3 | 11.3 | 0.00 | 0.00 | 0.00 | 52 | 1006.2 |
| 20260503184637 | 64 | 186 | 3.5 | 11.3 | 0.00 | 0.00 | 0.00 | 50 | 1006.2 |
| 20260503184137 | 63 | 161 | 4.3 | 9.6 | 0.00 | 0.00 | 0.00 | 52 | 1006.3 |
| 20260503183637 | 63 | 199 | 4.3 | 11.3 | 0.00 | 0.00 | 0.00 | 51 | 1006.1 |
| 20260503183137 | 63 | 165 | 5.2 | 12.2 | 0.00 | 0.00 | 0.00 | 53 | 1006.3 |
| 20260503182638 | 63 | 160 | 7.0 | 13.0 | 0.00 | 0.00 | 0.00 | 51 | 1006.3 |
| 20260503182138 | 63 | 107 | 5.2 | 13.0 | 0.00 | 0.00 | 0.00 | 50 | 1006.4 |
| 20260503181637 | 63 | 169 | 5.2 | 12.2 | 0.00 | 0.00 | 0.00 | 53 | 1006.4 |
| 20260503181137 | 62 | 177 | 5.2 | 12.2 | 0.00 | 0.00 | 0.00 | 54 | 1006.6 |
| 20260503180634 | 62 | 155 | 4.3 | 12.2 | 0.00 | 0.00 | 0.00 | 56 | 1006.6 |
| 20260503180136 | 62 | 167 | 4.3 | 9.6 | 0.00 | 0.00 | 0.00 | 56 | 1006.6 |
| 20260503175634 | 61 | 190 | 5.2 | 16.5 | 0.00 | 0.00 | 0.00 | 56 | 1006.8 |
| 20260503175136 | 60 | 196 | 5.2 | 16.5 | 0.00 | 0.00 | 0.00 | 57 | 1006.8 |
| 20260503174636 | 59 | 173 | 7.0 | 18.2 | 0.00 | 0.00 | 0.00 | 61 | 1006.9 |
| 20260503174136 | 59 | 196 | 7.0 | 18.2 | 0.00 | 0.00 | 0.00 | 62 | 1007.0 |
| 20260503173636 | 59 | 149 | 7.8 | 14.8 | 0.00 | 0.00 | 0.00 | 60 | 1007.1 |
| 20260503173136 | 58 | 191 | 7.0 | 12.2 | 0.00 | 0.00 | 0.00 | 62 | 1007.3 |
| 20260503172637 | 58 | 164 | 6.1 | 12.2 | 0.00 | 0.00 | 0.00 | 62 | 1007.2 |
| 20260503172137 | 58 | 193 | 5.2 | 12.2 | 0.00 | 0.00 | 0.00 | 62 | 1007.3 |
| 20260503171635 | 57 | 173 | 5.2 | 11.3 | 0.00 | 0.00 | 0.00 | 64 | 1007.4 |
| 20260503171135 | 57 | 192 | 7.0 | 12.2 | 0.00 | 0.00 | 0.00 | 63 | 1007.6 |
| 20260503170632 | 56 | 177 | 7.0 | 12.2 | 0.00 | 0.00 | 0.00 | 63 | 1007.8 |
| 20260503170133 | 56 | 185 | 6.1 | 11.3 | 0.00 | 0.00 | 0.00 | 64 | 1007.7 |
| 20260503160130 | 52 | 177 | 5.2 | 11.3 | 0.00 | 0.00 | 0.00 | 72 | 1008.5 |
| 20260503150911 | 55 | 162 | 4.3 | 13.9 | 0.00 | 0.00 | 0.00 | 67 | 1009.2 |
| 20260503150358 | 55 | 198 | 4.3 | 13.9 | 0.00 | 0.00 | 0.00 | 66 | 1009.3 |
| 20260503140123 | 57 | 175 | 2.6 | 7.8 | 0.00 | 0.00 | 0.00 | 60 | 1009.6 |
| 20260503131121 | 53 | 185 | 2.6 | 7.8 | 0.00 | 0.00 | 0.00 | 63 | 1010.0 |
| 20260503130848 | 52 | 182 | 2.6 | 5.2 | 0.00 | 0.00 | 0.00 | 62 | 1010.2 |
| 20260503130120 | 52 | 167 | 1.7 | 7.8 | 0.00 | 0.00 | 0.00 | 62 | 1010.2 |
| 20260503120115 | 49 | 148 | 2.6 | 7.0 | 0.00 | 0.00 | 0.00 | 62 | 1010.1 |
| 20260503110613 | 48 | 163 | 1.7 | 7.8 | 0.00 | 0.00 | 0.00 | 62 | 1009.9 |
| 20260503110113 | 48 | 170 | 1.7 | 5.2 | 0.00 | 0.00 | 0.00 | 63 | 1009.9 |
| 20260503100108 | 47 | 137 | 1.7 | 4.3 | 0.00 | 0.00 | 0.00 | 63 | 1010.2 |
| 20260503090104 | 47 | 189 | 1.7 | 6.1 | 0.00 | 0.00 | 0.00 | 62 | 1010.6 |
| 20260503081541 | 47 | 161 | 1.7 | 6.1 | 0.00 | 0.00 | 0.00 | 62 | 1011.0 |
| 20260503081040 | 47 | 153 | 1.7 | 6.1 | 0.00 | 0.00 | 0.00 | 61 | 1011.0 |
| 20260503080537 | 47 | 185 | 1.7 | 6.1 | 0.00 | 0.00 | 0.00 | 62 | 1011.0 |
| 20260503072537 | 47 | 217 | 0.9 | 7.8 | 0.00 | 0.00 | 0.00 | 61 | 1011.2 |
| 20260503072037 | 47 | 147 | 0.9 | 3.5 | 0.00 | 0.00 | 0.00 | 62 | 1011.2 |
| 20260503071538 | 47 | 0 | 0.9 | 5.2 | 0.00 | 0.00 | 0.00 | 62 | 1011.2 |
| 20260503071037 | 47 | 159 | 0.9 | 5.2 | 0.00 | 0.00 | 0.00 | 61 | 1011.2 |
| 20260503070532 | 47 | 159 | 0.9 | 4.3 | 0.00 | 0.00 | 0.00 | 61 | 1011.3 |